ADDS METAR Data

Data at: 0533 UTC 19 Jan 2018

METAR for:KBVY (Beverly Muni, MA, US)
Text:KBVY 190453Z AUTO 27003KT 10SM CLR M06/M09 A2993 RMK AO2 SLP134 T10611094 410061083
Temperature: -6.1°C ( 21°F)
Dewpoint: -9.4°C ( 15°F) [RH = 77%]
Pressure (altimeter):29.93 inches Hg (1013.6 mb) [Sea level pressure: 1013.4 mb]
Winds:from the W (270 degrees) at 3 MPH (3 knots; 1.5 m/s)
Visibility:10 or more sm (16+ km)
Ceiling:at least 12,000 feet AGL
Clouds:sky clear below 12,000 feet AGL
QC Flag:automated observation with no human augmentation